sensor_id;sensor_type;location;lat;lon;timestamp;pressure;altitude;pressure_sealevel;temperature;humidity
45050;BME280;61798;48.048;-1.928;2022-07-23T00:01:20;101211.34;;;14.40;71.76
45050;BME280;61798;48.048;-1.928;2022-07-23T00:04:09;101279.69;;;15.15;70.56
45050;BME280;61798;48.048;-1.928;2022-07-23T00:06:57;101287.38;;;15.11;70.84
45050;BME280;61798;48.048;-1.928;2022-07-23T00:09:45;101278.97;;;14.45;73.57
45050;BME280;61798;48.048;-1.928;2022-07-23T00:12:33;101273.88;;;14.98;71.29
45050;BME280;61798;48.048;-1.928;2022-07-23T00:15:21;101276.94;;;14.81;71.61
45050;BME280;61798;48.048;-1.928;2022-07-23T00:18:08;101272.38;;;14.75;72.24
45050;BME280;61798;48.048;-1.928;2022-07-23T00:20:57;101263.66;;;14.86;72.17
45050;BME280;61798;48.048;-1.928;2022-07-23T00:23:45;101253.69;;;14.59;72.16
45050;BME280;61798;48.048;-1.928;2022-07-23T00:26:33;101259.50;;;14.63;72.63
45050;BME280;61798;48.048;-1.928;2022-07-23T00:29:19;101260.53;;;13.92;75.00
45050;BME280;61798;48.048;-1.928;2022-07-23T00:32:05;101264.69;;;13.95;75.60
45050;BME280;61798;48.048;-1.928;2022-07-23T00:34:52;101259.13;;;14.10;75.10
45050;BME280;61798;48.048;-1.928;2022-07-23T00:37:40;101264.94;;;13.64;76.78
45050;BME280;61798;48.048;-1.928;2022-07-23T00:40:28;101274.28;;;14.11;75.21
45050;BME280;61798;48.048;-1.928;2022-07-23T00:43:16;101271.34;;;14.06;75.20
45050;BME280;61798;48.048;-1.928;2022-07-23T00:46:03;101272.75;;;13.59;77.13
45050;BME280;61798;48.048;-1.928;2022-07-23T00:48:49;101266.88;;;14.20;74.18
45050;BME280;61798;48.048;-1.928;2022-07-23T00:51:37;101265.44;;;14.31;73.83
45050;BME280;61798;48.048;-1.928;2022-07-23T00:54:26;101266.78;;;14.00;74.63
45050;BME280;61798;48.048;-1.928;2022-07-23T00:57:15;101276.78;;;13.70;76.80
45050;BME280;61798;48.048;-1.928;2022-07-23T01:00:07;101265.19;;;14.12;75.37
45050;BME280;61798;48.048;-1.928;2022-07-23T01:02:56;101258.97;;;13.69;76.35
45050;BME280;61798;48.048;-1.928;2022-07-23T01:05:44;101270.47;;;13.92;76.26
45050;BME280;61798;48.048;-1.928;2022-07-23T01:08:32;101266.59;;;13.66;76.75
45050;BME280;61798;48.048;-1.928;2022-07-23T01:11:20;101266.75;;;13.57;77.66
45050;BME280;61798;48.048;-1.928;2022-07-23T01:14:16;101264.25;;;13.27;79.13
45050;BME280;61798;48.048;-1.928;2022-07-23T01:17:04;101261.75;;;13.25;78.03
45050;BME280;61798;48.048;-1.928;2022-07-23T01:19:52;101259.97;;;13.10;80.04
45050;BME280;61798;48.048;-1.928;2022-07-23T01:22:40;101258.41;;;13.52;77.98
45050;BME280;61798;48.048;-1.928;2022-07-23T01:25:27;101243.50;;;13.85;76.72
45050;BME280;61798;48.048;-1.928;2022-07-23T01:28:15;101243.09;;;13.52;77.49
45050;BME280;61798;48.048;-1.928;2022-07-23T01:31:03;101231.88;;;13.49;78.15
45050;BME280;61798;48.048;-1.928;2022-07-23T01:33:51;101240.75;;;13.42;78.78
45050;BME280;61798;48.048;-1.928;2022-07-23T01:36:37;101240.56;;;13.15;79.95
45050;BME280;61798;48.048;-1.928;2022-07-23T01:39:24;101227.25;;;13.64;77.51
45050;BME280;61798;48.048;-1.928;2022-07-23T01:42:10;101231.47;;;13.16;80.09
45050;BME280;61798;48.048;-1.928;2022-07-23T01:44:56;101224.66;;;13.20;78.54
45050;BME280;61798;48.048;-1.928;2022-07-23T01:47:46;101232.19;;;13.32;79.14
45050;BME280;61798;48.048;-1.928;2022-07-23T01:50:34;101219.25;;;13.49;77.63
45050;BME280;61798;48.048;-1.928;2022-07-23T01:53:22;101214.69;;;13.85;76.22
45050;BME280;61798;48.048;-1.928;2022-07-23T01:56:09;101232.16;;;13.25;79.35
45050;BME280;61798;48.048;-1.928;2022-07-23T01:58:56;101226.81;;;13.61;77.87
45050;BME280;61798;48.048;-1.928;2022-07-23T02:01:44;101226.16;;;13.30;79.28
45050;BME280;61798;48.048;-1.928;2022-07-23T02:04:32;101246.47;;;13.97;76.58
45050;BME280;61798;48.048;-1.928;2022-07-23T02:07:25;101237.91;;;13.51;77.93
45050;BME280;61798;48.048;-1.928;2022-07-23T02:10:14;101222.72;;;13.72;77.14
45050;BME280;61798;48.048;-1.928;2022-07-23T02:13:02;101239.66;;;13.66;77.43
45050;BME280;61798;48.048;-1.928;2022-07-23T02:15:51;101249.25;;;13.75;77.14
45050;BME280;61798;48.048;-1.928;2022-07-23T02:18:39;101238.84;;;13.07;79.72
45050;BME280;61798;48.048;-1.928;2022-07-23T02:21:25;101262.00;;;13.30;79.81
45050;BME280;61798;48.048;-1.928;2022-07-23T02:24:13;101253.41;;;13.78;77.73
45050;BME280;61798;48.048;-1.928;2022-07-23T02:27:01;101256.28;;;13.40;79.04
45050;BME280;61798;48.048;-1.928;2022-07-23T02:29:49;101253.66;;;13.54;78.35
45050;BME280;61798;48.048;-1.928;2022-07-23T02:32:38;101255.22;;;13.70;77.28
45050;BME280;61798;48.048;-1.928;2022-07-23T02:35:26;101253.00;;;13.16;80.31
45050;BME280;61798;48.048;-1.928;2022-07-23T02:38:13;101268.09;;;13.46;78.73
45050;BME280;61798;48.048;-1.928;2022-07-23T02:41:00;101265.34;;;13.61;78.01
45050;BME280;61798;48.048;-1.928;2022-07-23T02:43:48;101255.31;;;13.84;77.16
45050;BME280;61798;48.048;-1.928;2022-07-23T02:46:36;101263.69;;;13.60;78.25
45050;BME280;61798;48.048;-1.928;2022-07-23T02:49:23;101254.19;;;14.14;75.35
45050;BME280;61798;48.048;-1.928;2022-07-23T02:52:09;101269.09;;;13.67;77.45
45050;BME280;61798;48.048;-1.928;2022-07-23T02:54:56;101258.44;;;13.88;76.59
45050;BME280;61798;48.048;-1.928;2022-07-23T02:57:43;101260.81;;;13.69;77.49
45050;BME280;61798;48.048;-1.928;2022-07-23T03:00:30;101260.47;;;13.85;76.69
45050;BME280;61798;48.048;-1.928;2022-07-23T03:03:19;101251.25;;;13.66;77.03
45050;BME280;61798;48.048;-1.928;2022-07-23T03:06:06;101257.06;;;13.63;77.05
45050;BME280;61798;48.048;-1.928;2022-07-23T03:08:53;101239.47;;;13.67;76.23
45050;BME280;61798;48.048;-1.928;2022-07-23T03:11:41;101239.34;;;13.82;76.00
45050;BME280;61798;48.048;-1.928;2022-07-23T03:14:29;101266.03;;;13.41;77.87
45050;BME280;61798;48.048;-1.928;2022-07-23T03:17:17;101255.88;;;13.72;76.67
45050;BME280;61798;48.048;-1.928;2022-07-23T03:20:06;101257.28;;;13.39;78.31
45050;BME280;61798;48.048;-1.928;2022-07-23T03:22:53;101254.59;;;13.10;80.06
45050;BME280;61798;48.048;-1.928;2022-07-23T03:25:41;101245.53;;;13.18;79.43
45050;BME280;61798;48.048;-1.928;2022-07-23T03:28:29;101247.84;;;12.93;81.32
45050;BME280;61798;48.048;-1.928;2022-07-23T03:31:18;101237.06;;;12.71;81.81
45050;BME280;61798;48.048;-1.928;2022-07-23T03:34:06;101230.69;;;12.72;81.86
45050;BME280;61798;48.048;-1.928;2022-07-23T03:36:54;101239.28;;;12.60;82.73
45050;BME280;61798;48.048;-1.928;2022-07-23T03:39:42;101244.69;;;12.45;83.34
45050;BME280;61798;48.048;-1.928;2022-07-23T03:42:30;101253.03;;;12.72;82.14
45050;BME280;61798;48.048;-1.928;2022-07-23T03:45:18;101233.06;;;13.10;79.97
45050;BME280;61798;48.048;-1.928;2022-07-23T03:48:06;101254.94;;;13.00;79.79
45050;BME280;61798;48.048;-1.928;2022-07-23T03:50:54;101239.72;;;12.64;81.51
45050;BME280;61798;48.048;-1.928;2022-07-23T03:53:41;101256.75;;;12.71;81.96
45050;BME280;61798;48.048;-1.928;2022-07-23T03:56:29;101256.09;;;12.91;80.13
45050;BME280;61798;48.048;-1.928;2022-07-23T03:59:16;101265.38;;;13.39;78.44
45050;BME280;61798;48.048;-1.928;2022-07-23T04:02:04;101273.38;;;13.04;80.27
45050;BME280;61798;48.048;-1.928;2022-07-23T04:04:51;101267.44;;;12.64;82.60
45050;BME280;61798;48.048;-1.928;2022-07-23T04:07:38;101258.34;;;12.65;81.94
45050;BME280;61798;48.048;-1.928;2022-07-23T04:10:25;101263.03;;;12.56;82.43
45050;BME280;61798;48.048;-1.928;2022-07-23T04:13:12;101257.25;;;12.37;82.51
45050;BME280;61798;48.048;-1.928;2022-07-23T04:16:00;101266.88;;;12.69;81.96
45050;BME280;61798;48.048;-1.928;2022-07-23T04:18:47;101265.59;;;12.65;82.23
45050;BME280;61798;48.048;-1.928;2022-07-23T04:21:35;101260.41;;;13.14;79.01
45050;BME280;61798;48.048;-1.928;2022-07-23T04:24:23;101275.88;;;12.83;80.89
45050;BME280;61798;48.048;-1.928;2022-07-23T04:27:11;101265.78;;;13.14;79.64
45050;BME280;61798;48.048;-1.928;2022-07-23T04:29:59;101258.47;;;12.79;80.16
45050;BME280;61798;48.048;-1.928;2022-07-23T04:32:47;101272.47;;;12.74;80.50
45050;BME280;61798;48.048;-1.928;2022-07-23T04:35:35;101266.66;;;12.71;80.85
45050;BME280;61798;48.048;-1.928;2022-07-23T04:38:23;101274.09;;;12.68;80.64
45050;BME280;61798;48.048;-1.928;2022-07-23T04:41:09;101284.72;;;13.21;78.58
45050;BME280;61798;48.048;-1.928;2022-07-23T04:43:57;101274.00;;;13.06;78.82
45050;BME280;61798;48.048;-1.928;2022-07-23T04:46:45;101268.97;;;12.52;80.96
45050;BME280;61798;48.048;-1.928;2022-07-23T04:49:33;101279.28;;;12.70;80.58
45050;BME280;61798;48.048;-1.928;2022-07-23T04:52:21;101266.34;;;12.58;81.34
45050;BME280;61798;48.048;-1.928;2022-07-23T04:55:09;101270.63;;;12.97;79.56
45050;BME280;61798;48.048;-1.928;2022-07-23T04:57:57;101252.75;;;13.11;78.68
45050;BME280;61798;48.048;-1.928;2022-07-23T05:00:44;101247.50;;;13.03;78.60
45050;BME280;61798;48.048;-1.928;2022-07-23T05:03:32;101248.38;;;13.10;78.46
45050;BME280;61798;48.048;-1.928;2022-07-23T05:06:20;101274.13;;;13.19;79.19
45050;BME280;61798;48.048;-1.928;2022-07-23T05:09:08;101287.84;;;13.25;78.82
45050;BME280;61798;48.048;-1.928;2022-07-23T05:11:58;101259.69;;;13.27;78.15
45050;BME280;61798;48.048;-1.928;2022-07-23T05:14:45;101271.22;;;13.50;77.75
45050;BME280;61798;48.048;-1.928;2022-07-23T05:17:32;101274.75;;;13.50;77.90
45050;BME280;61798;48.048;-1.928;2022-07-23T05:20:20;101274.25;;;13.33;78.44
45050;BME280;61798;48.048;-1.928;2022-07-23T05:23:07;101288.81;;;13.17;80.33
45050;BME280;61798;48.048;-1.928;2022-07-23T05:25:54;101283.44;;;12.95;81.10
45050;BME280;61798;48.048;-1.928;2022-07-23T05:28:42;101284.34;;;12.80;82.75
45050;BME280;61798;48.048;-1.928;2022-07-23T05:31:29;101281.28;;;13.34;79.46
45050;BME280;61798;48.048;-1.928;2022-07-23T05:34:16;101297.38;;;13.56;78.39
45050;BME280;61798;48.048;-1.928;2022-07-23T05:37:03;101300.44;;;13.75;78.02
45050;BME280;61798;48.048;-1.928;2022-07-23T05:39:49;101294.28;;;13.59;79.03
45050;BME280;61798;48.048;-1.928;2022-07-23T05:42:37;101302.66;;;13.64;78.96
45050;BME280;61798;48.048;-1.928;2022-07-23T05:45:25;101299.88;;;13.87;77.79
45050;BME280;61798;48.048;-1.928;2022-07-23T05:48:14;101292.16;;;13.77;78.07
45050;BME280;61798;48.048;-1.928;2022-07-23T05:51:03;101307.19;;;13.64;79.57
45050;BME280;61798;48.048;-1.928;2022-07-23T05:53:55;101302.69;;;13.71;79.79
45050;BME280;61798;48.048;-1.928;2022-07-23T05:56:43;101294.59;;;13.71;80.32
45050;BME280;61798;48.048;-1.928;2022-07-23T05:59:31;101304.78;;;14.12;77.77
45050;BME280;61798;48.048;-1.928;2022-07-23T06:01:56;101311.13;;;13.97;78.98
45050;BME280;61798;48.048;-1.928;2022-07-23T06:04:03;101312.72;;;13.84;80.04
45050;BME280;61798;48.048;-1.928;2022-07-23T06:06:09;101297.88;;;14.02;79.26
45050;BME280;61798;48.048;-1.928;2022-07-23T06:08:15;101306.88;;;14.23;79.05
45050;BME280;61798;48.048;-1.928;2022-07-23T06:10:21;101303.38;;;14.30;77.69
45050;BME280;61798;48.048;-1.928;2022-07-23T06:12:27;101295.69;;;14.20;78.79
45050;BME280;61798;48.048;-1.928;2022-07-23T06:14:34;101323.25;;;14.22;80.17
45050;BME280;61798;48.048;-1.928;2022-07-23T06:16:42;101312.13;;;14.45;78.15
45050;BME280;61798;48.048;-1.928;2022-07-23T06:18:49;101307.56;;;14.32;79.19
45050;BME280;61798;48.048;-1.928;2022-07-23T06:20:56;101323.56;;;14.54;78.45
45050;BME280;61798;48.048;-1.928;2022-07-23T06:23:04;101318.41;;;14.53;78.50
45050;BME280;61798;48.048;-1.928;2022-07-23T06:25:11;101317.41;;;14.67;79.33
45050;BME280;61798;48.048;-1.928;2022-07-23T06:27:18;101327.34;;;14.60;79.43
45050;BME280;61798;48.048;-1.928;2022-07-23T06:29:26;101318.84;;;14.70;78.13
45050;BME280;61798;48.048;-1.928;2022-07-23T06:31:33;101322.19;;;14.79;78.71
45050;BME280;61798;48.048;-1.928;2022-07-23T06:33:41;101320.88;;;14.54;79.75
45050;BME280;61798;48.048;-1.928;2022-07-23T06:35:48;101310.75;;;14.63;78.88
45050;BME280;61798;48.048;-1.928;2022-07-23T06:37:55;101318.25;;;14.75;77.28
45050;BME280;61798;48.048;-1.928;2022-07-23T06:40:03;101333.06;;;15.06;76.53
45050;BME280;61798;48.048;-1.928;2022-07-23T06:42:10;101315.81;;;15.14;77.42
45050;BME280;61798;48.048;-1.928;2022-07-23T06:44:17;101320.19;;;15.15;76.02
45050;BME280;61798;48.048;-1.928;2022-07-23T06:46:23;101332.44;;;15.38;76.84
45050;BME280;61798;48.048;-1.928;2022-07-23T06:48:30;101290.91;;;15.19;75.81
45050;BME280;61798;48.048;-1.928;2022-07-23T06:50:36;101270.16;;;14.99;77.35
45050;BME280;61798;48.048;-1.928;2022-07-23T06:52:43;101320.38;;;15.41;76.78
45050;BME280;61798;48.048;-1.928;2022-07-23T06:54:49;101303.13;;;15.49;76.61
45050;BME280;61798;48.048;-1.928;2022-07-23T06:56:55;101338.88;;;15.71;75.69
45050;BME280;61798;48.048;-1.928;2022-07-23T06:59:02;101328.91;;;15.51;77.12
45050;BME280;61798;48.048;-1.928;2022-07-23T07:01:44;101327.19;;;15.78;75.39
45050;BME280;61798;48.048;-1.928;2022-07-23T07:04:28;101335.09;;;15.86;73.79
45050;BME280;61798;48.048;-1.928;2022-07-23T07:06:40;101339.59;;;16.20;74.11
45050;BME280;61798;48.048;-1.928;2022-07-23T07:08:46;101346.69;;;15.93;74.32
45050;BME280;61798;48.048;-1.928;2022-07-23T07:10:55;101327.41;;;15.83;74.66
45050;BME280;61798;48.048;-1.928;2022-07-23T07:13:06;101351.06;;;16.01;74.19
45050;BME280;61798;48.048;-1.928;2022-07-23T07:15:12;101301.81;;;15.92;74.03
45050;BME280;61798;48.048;-1.928;2022-07-23T07:17:18;101315.72;;;16.03;74.04
45050;BME280;61798;48.048;-1.928;2022-07-23T07:19:24;101346.81;;;16.40;73.10
45050;BME280;61798;48.048;-1.928;2022-07-23T07:21:30;101315.19;;;16.33;72.80
45050;BME280;61798;48.048;-1.928;2022-07-23T07:23:36;101324.09;;;16.41;72.58
45050;BME280;61798;48.048;-1.928;2022-07-23T07:25:42;101338.56;;;16.67;71.95
45050;BME280;61798;48.048;-1.928;2022-07-23T07:27:48;101323.84;;;16.49;72.01
45050;BME280;61798;48.048;-1.928;2022-07-23T07:29:54;101329.41;;;16.68;72.31
45050;BME280;61798;48.048;-1.928;2022-07-23T07:32:00;101362.22;;;17.11;71.65
45050;BME280;61798;48.048;-1.928;2022-07-23T07:34:05;101357.41;;;17.13;70.59
45050;BME280;61798;48.048;-1.928;2022-07-23T07:36:11;101357.59;;;17.18;71.17
45050;BME280;61798;48.048;-1.928;2022-07-23T07:38:22;101334.50;;;17.16;70.72
45050;BME280;61798;48.048;-1.928;2022-07-23T07:40:32;101351.13;;;17.19;70.39
45050;BME280;61798;48.048;-1.928;2022-07-23T07:42:45;101357.19;;;17.15;70.47
45050;BME280;61798;48.048;-1.928;2022-07-23T07:44:51;101346.56;;;17.13;69.87
45050;BME280;61798;48.048;-1.928;2022-07-23T07:46:59;101349.72;;;17.42;69.07
45050;BME280;61798;48.048;-1.928;2022-07-23T07:49:06;101342.56;;;17.48;69.32
45050;BME280;61798;48.048;-1.928;2022-07-23T07:51:12;101374.84;;;17.24;69.59
45050;BME280;61798;48.048;-1.928;2022-07-23T07:53:18;101348.91;;;17.61;68.06
45050;BME280;61798;48.048;-1.928;2022-07-23T07:55:24;101352.81;;;18.10;65.99
45050;BME280;61798;48.048;-1.928;2022-07-23T07:57:30;101326.28;;;17.74;66.56
45050;BME280;61798;48.048;-1.928;2022-07-23T07:59:36;101319.63;;;17.51;67.38
45050;BME280;61798;48.048;-1.928;2022-07-23T08:01:42;101373.00;;;17.95;67.02
45050;BME280;61798;48.048;-1.928;2022-07-23T08:03:48;101325.00;;;17.76;66.27
45050;BME280;61798;48.048;-1.928;2022-07-23T08:05:54;101349.94;;;18.42;65.62
45050;BME280;61798;48.048;-1.928;2022-07-23T08:08:01;101346.66;;;18.83;64.11
45050;BME280;61798;48.048;-1.928;2022-07-23T08:10:08;101359.03;;;18.48;64.72
45050;BME280;61798;48.048;-1.928;2022-07-23T08:12:15;101332.91;;;18.66;63.64
45050;BME280;61798;48.048;-1.928;2022-07-23T08:14:22;101339.97;;;18.36;64.30
45050;BME280;61798;48.048;-1.928;2022-07-23T08:16:28;101363.69;;;19.33;62.88
45050;BME280;61798;48.048;-1.928;2022-07-23T08:18:34;101354.63;;;18.66;63.40
45050;BME280;61798;48.048;-1.928;2022-07-23T08:20:40;101332.38;;;18.88;61.37
45050;BME280;61798;48.048;-1.928;2022-07-23T08:23:04;101347.50;;;18.53;62.75
45050;BME280;61798;48.048;-1.928;2022-07-23T08:25:11;101377.91;;;18.74;61.36
45050;BME280;61798;48.048;-1.928;2022-07-23T08:27:18;101361.38;;;19.06;59.74
45050;BME280;61798;48.048;-1.928;2022-07-23T08:29:25;101382.19;;;18.81;61.38
45050;BME280;61798;48.048;-1.928;2022-07-23T08:31:31;101357.97;;;19.23;59.57
45050;BME280;61798;48.048;-1.928;2022-07-23T08:33:38;101367.97;;;18.98;60.03
45050;BME280;61798;48.048;-1.928;2022-07-23T08:35:47;101369.00;;;19.28;58.61
45050;BME280;61798;48.048;-1.928;2022-07-23T08:37:53;101362.06;;;19.01;58.75
45050;BME280;61798;48.048;-1.928;2022-07-23T08:39:59;101353.38;;;19.23;57.77
45050;BME280;61798;48.048;-1.928;2022-07-23T08:42:06;101347.31;;;19.09;60.04
45050;BME280;61798;48.048;-1.928;2022-07-23T08:44:13;101366.28;;;19.28;59.53
45050;BME280;61798;48.048;-1.928;2022-07-23T08:46:19;101368.31;;;19.02;60.40
45050;BME280;61798;48.048;-1.928;2022-07-23T08:48:28;101330.59;;;19.25;58.54
45050;BME280;61798;48.048;-1.928;2022-07-23T08:50:35;101373.13;;;19.43;58.45
45050;BME280;61798;48.048;-1.928;2022-07-23T08:52:43;101367.94;;;19.53;58.23
45050;BME280;61798;48.048;-1.928;2022-07-23T08:54:50;101366.78;;;19.49;58.61
45050;BME280;61798;48.048;-1.928;2022-07-23T08:56:57;101373.59;;;19.40;57.86
45050;BME280;61798;48.048;-1.928;2022-07-23T08:59:03;101374.66;;;19.51;58.30
45050;BME280;61798;48.048;-1.928;2022-07-23T09:01:11;101362.72;;;19.40;58.76
45050;BME280;61798;48.048;-1.928;2022-07-23T09:03:36;101365.09;;;19.84;56.68
45050;BME280;61798;48.048;-1.928;2022-07-23T09:06:00;101362.56;;;20.19;56.27
45050;BME280;61798;48.048;-1.928;2022-07-23T09:08:15;101365.09;;;19.84;56.62
45050;BME280;61798;48.048;-1.928;2022-07-23T09:10:21;101354.09;;;19.55;57.41
45050;BME280;61798;48.048;-1.928;2022-07-23T09:12:27;101358.25;;;19.94;56.69
45050;BME280;61798;48.048;-1.928;2022-07-23T09:14:42;101352.56;;;19.83;56.04
45050;BME280;61798;48.048;-1.928;2022-07-23T09:16:52;101338.09;;;20.07;55.35
45050;BME280;61798;48.048;-1.928;2022-07-23T09:19:05;101358.56;;;20.10;55.78
45050;BME280;61798;48.048;-1.928;2022-07-23T09:23:59;101358.56;;;20.22;55.05
45050;BME280;61798;48.048;-1.928;2022-07-23T09:26:53;101363.50;;;20.13;54.96
45050;BME280;61798;48.048;-1.928;2022-07-23T09:29:04;101343.63;;;20.12;54.96
45050;BME280;61798;48.048;-1.928;2022-07-23T09:31:11;101362.09;;;20.34;54.72
45050;BME280;61798;48.048;-1.928;2022-07-23T09:33:17;101336.78;;;20.22;54.51
45050;BME280;61798;48.048;-1.928;2022-07-23T09:35:45;101360.66;;;20.32;53.40
45050;BME280;61798;48.048;-1.928;2022-07-23T09:38:02;101368.94;;;20.37;54.43
45050;BME280;61798;48.048;-1.928;2022-07-23T09:40:09;101352.38;;;20.26;52.70
45050;BME280;61798;48.048;-1.928;2022-07-23T09:42:24;101347.88;;;20.32;54.60
45050;BME280;61798;48.048;-1.928;2022-07-23T09:44:41;101367.50;;;20.64;53.01
45050;BME280;61798;48.048;-1.928;2022-07-23T09:46:49;101356.88;;;20.33;51.98
45050;BME280;61798;48.048;-1.928;2022-07-23T09:48:56;101356.13;;;20.67;51.24
45050;BME280;61798;48.048;-1.928;2022-07-23T09:51:04;101333.34;;;20.14;52.79
45050;BME280;61798;48.048;-1.928;2022-07-23T09:53:24;101360.56;;;20.56;51.00
45050;BME280;61798;48.048;-1.928;2022-07-23T09:55:33;101345.00;;;20.68;51.09
45050;BME280;61798;48.048;-1.928;2022-07-23T09:57:45;101341.44;;;20.68;52.01
45050;BME280;61798;48.048;-1.928;2022-07-23T09:59:57;101326.63;;;20.93;50.87
45050;BME280;61798;48.048;-1.928;2022-07-23T10:02:08;101342.00;;;21.34;50.17
45050;BME280;61798;48.048;-1.928;2022-07-23T10:04:16;101343.50;;;21.24;49.89
45050;BME280;61798;48.048;-1.928;2022-07-23T10:06:23;101319.00;;;20.60;48.71
45050;BME280;61798;48.048;-1.928;2022-07-23T10:08:31;101344.63;;;20.47;49.25
45050;BME280;61798;48.048;-1.928;2022-07-23T10:10:40;101346.56;;;20.64;48.39
45050;BME280;61798;48.048;-1.928;2022-07-23T10:13:21;101345.41;;;21.07;50.35
45050;BME280;61798;48.048;-1.928;2022-07-23T10:15:27;101347.81;;;21.20;49.80
45050;BME280;61798;48.048;-1.928;2022-07-23T10:17:35;101334.63;;;21.52;47.15
45050;BME280;61798;48.048;-1.928;2022-07-23T10:19:41;101338.94;;;21.48;48.80
45050;BME280;61798;48.048;-1.928;2022-07-23T10:22:04;101343.78;;;22.25;44.85
45050;BME280;61798;48.048;-1.928;2022-07-23T10:29:52;101350.91;;;21.64;46.82
45050;BME280;61798;48.048;-1.928;2022-07-23T10:35:18;101340.72;;;22.22;44.02
45050;BME280;61798;48.048;-1.928;2022-07-23T10:37:36;101343.03;;;22.07;44.43
45050;BME280;61798;48.048;-1.928;2022-07-23T10:39:43;101340.09;;;22.37;45.40
45050;BME280;61798;48.048;-1.928;2022-07-23T10:41:50;101340.47;;;22.23;44.65
45050;BME280;61798;48.048;-1.928;2022-07-23T10:44:11;101333.22;;;22.34;46.13
45050;BME280;61798;48.048;-1.928;2022-07-23T10:46:27;101322.88;;;22.64;45.04
45050;BME280;61798;48.048;-1.928;2022-07-23T10:49:29;101326.25;;;23.43;43.33
45050;BME280;61798;48.048;-1.928;2022-07-23T10:51:37;101321.75;;;23.26;42.81
45050;BME280;61798;48.048;-1.928;2022-07-23T10:56:00;101311.19;;;22.97;44.42
45050;BME280;61798;48.048;-1.928;2022-07-23T10:58:07;101312.56;;;23.43;42.36
45050;BME280;61798;48.048;-1.928;2022-07-23T11:00:14;101313.84;;;23.24;44.36
45050;BME280;61798;48.048;-1.928;2022-07-23T11:02:22;101319.41;;;23.45;42.62
45050;BME280;61798;48.048;-1.928;2022-07-23T11:04:48;101317.69;;;23.77;43.33
45050;BME280;61798;48.048;-1.928;2022-07-23T11:09:41;101323.78;;;24.01;41.92
45050;BME280;61798;48.048;-1.928;2022-07-23T11:11:48;101325.69;;;23.95;41.51
45050;BME280;61798;48.048;-1.928;2022-07-23T11:13:55;101312.47;;;24.93;38.91
45050;BME280;61798;48.048;-1.928;2022-07-23T11:16:21;101298.41;;;24.21;39.19
45050;BME280;61798;48.048;-1.928;2022-07-23T11:20:49;101306.03;;;24.03;40.19
45050;BME280;61798;48.048;-1.928;2022-07-23T11:22:59;101322.28;;;24.42;41.29
45050;BME280;61798;48.048;-1.928;2022-07-23T11:25:28;101319.31;;;24.69;41.19
45050;BME280;61798;48.048;-1.928;2022-07-23T11:27:51;101302.91;;;24.64;40.22
45050;BME280;61798;48.048;-1.928;2022-07-23T11:30:02;101302.59;;;24.81;39.82
45050;BME280;61798;48.048;-1.928;2022-07-23T11:32:19;101303.44;;;25.13;38.37
45050;BME280;61798;48.048;-1.928;2022-07-23T11:34:45;101300.28;;;25.67;37.35
45050;BME280;61798;48.048;-1.928;2022-07-23T11:36:55;101310.03;;;24.76;39.46
45050;BME280;61798;48.048;-1.928;2022-07-23T11:39:02;101297.03;;;24.29;38.50
45050;BME280;61798;48.048;-1.928;2022-07-23T11:41:10;101289.47;;;24.78;39.89
45050;BME280;61798;48.048;-1.928;2022-07-23T11:43:18;101294.91;;;25.04;38.25
45050;BME280;61798;48.048;-1.928;2022-07-23T11:45:32;101289.72;;;24.50;38.04
45050;BME280;61798;48.048;-1.928;2022-07-23T11:47:42;101284.50;;;24.86;39.84
45050;BME280;61798;48.048;-1.928;2022-07-23T11:49:59;101285.03;;;25.30;38.23
45050;BME280;61798;48.048;-1.928;2022-07-23T11:52:13;101275.72;;;25.31;37.31
45050;BME280;61798;48.048;-1.928;2022-07-23T11:54:21;101288.28;;;25.42;38.17
45050;BME280;61798;48.048;-1.928;2022-07-23T11:56:27;101294.44;;;25.95;37.06
45050;BME280;61798;48.048;-1.928;2022-07-23T11:58:37;101284.56;;;26.35;36.23
45050;BME280;61798;48.048;-1.928;2022-07-23T12:00:43;101272.41;;;26.46;34.18
45050;BME280;61798;48.048;-1.928;2022-07-23T12:02:53;101291.44;;;26.32;36.14
45050;BME280;61798;48.048;-1.928;2022-07-23T12:05:02;101288.22;;;26.65;35.63
45050;BME280;61798;48.048;-1.928;2022-07-23T12:07:37;101293.25;;;26.53;35.69
45050;BME280;61798;48.048;-1.928;2022-07-23T12:09:44;101265.50;;;26.49;35.51
45050;BME280;61798;48.048;-1.928;2022-07-23T12:21:45;101223.22;;;26.45;34.65
45050;BME280;61798;48.048;-1.928;2022-07-23T12:24:10;101228.31;;;25.86;34.72
45050;BME280;61798;48.048;-1.928;2022-07-23T12:26:18;101213.72;;;25.30;35.49
45050;BME280;61798;48.048;-1.928;2022-07-23T12:29:10;101231.06;;;26.62;35.85
45050;BME280;61798;48.048;-1.928;2022-07-23T12:42:45;101256.03;;;27.50;35.57
45050;BME280;61798;48.048;-1.928;2022-07-23T12:45:16;101200.59;;;27.38;34.28
45050;BME280;61798;48.048;-1.928;2022-07-23T12:47:22;101231.53;;;27.93;33.94
45050;BME280;61798;48.048;-1.928;2022-07-23T12:49:35;101220.88;;;27.22;34.56
45050;BME280;61798;48.048;-1.928;2022-07-23T12:57:04;101200.91;;;26.16;34.93
45050;BME280;61798;48.048;-1.928;2022-07-23T12:59:31;101199.56;;;27.03;35.53
45050;BME280;61798;48.048;-1.928;2022-07-23T13:01:55;101240.03;;;27.28;34.55
45050;BME280;61798;48.048;-1.928;2022-07-23T13:08:47;101232.81;;;28.54;34.05
45050;BME280;61798;48.048;-1.928;2022-07-23T13:10:54;101185.50;;;28.94;32.75
45050;BME280;61798;48.048;-1.928;2022-07-23T13:23:42;101195.31;;;29.29;32.23
45050;BME280;61798;48.048;-1.928;2022-07-23T13:28:28;101228.78;;;28.79;33.30
45050;BME280;61798;48.048;-1.928;2022-07-23T13:33:30;101216.63;;;28.47;32.63
45050;BME280;61798;48.048;-1.928;2022-07-23T13:40:55;101168.03;;;28.51;32.28
45050;BME280;61798;48.048;-1.928;2022-07-23T13:43:05;101176.31;;;28.51;32.25
45050;BME280;61798;48.048;-1.928;2022-07-23T13:45:38;101210.16;;;28.57;32.87
45050;BME280;61798;48.048;-1.928;2022-07-23T13:50:37;101218.28;;;29.38;32.84